»·PEaware :: SWA2010 KOAK-KSEA

SWA2010 :: KOAK-KSEA

FLIGHT INFORMATION

Flight Status: Arrived
Operator:
Southwest Airlines
More flights by this operator :: More flights under this callsign
Pilot: Andrew C. (28419)
Aircraft: BOEING 737-800
(B738)
More flights by this aircraft type
Origin: KOAK Metro Oakland Intl
United States
Destination: KSEA Seattle-Tacoma Intl
United States
More flights between these airports :: More routes between these airports
Route: HUSSH2 DEDHD RBL LMT HAWKZ7
File this flight plan on PilotEdge
Remarks: RMK / SIMBRIEF
Altitude:
(Current/Filed)
36,000ft
Speed:
(Current/Filed)
453kts
Departed: 01-Aug-20 04:29 PM
Arrived: 01-Aug-20 05:59 PM
Distance/Time
Traveled:
583nm/1:30
Distance/Time
To Go:
Arrived

Flight Plot

Page will automatically refresh every two minutes.


Map Options




Map Legend


Flown Route
Filed Route
Departure Airport
Arrival Airport
Navaid (VOR, NDB)
Fix

Horizontal Profiles

Position Reports

Time Latitude Longitude Heading Altitude Ground
Speed
01-Aug-20 16:12 37.711668 -122.213755 29 17ft 0kts
01-Aug-20 16:13 37.711668 -122.213755 29 17ft 0kts
01-Aug-20 16:14 37.711668 -122.213755 29 17ft 0kts
01-Aug-20 16:15 37.711668 -122.213755 29 17ft 0kts
01-Aug-20 16:16 37.711668 -122.213755 29 17ft 0kts
01-Aug-20 16:17 37.711668 -122.213755 29 17ft 0kts
01-Aug-20 16:18 37.711668 -122.213755 29 17ft 0kts
01-Aug-20 16:19 37.711651 -122.213768 30 17ft 1kts
01-Aug-20 16:20 37.711070 -122.213803 346 17ft 2kts
01-Aug-20 16:21 37.710768 -122.213370 250 17ft 0kts
01-Aug-20 16:22 37.710768 -122.213370 250 17ft 0kts
01-Aug-20 16:23 37.710730 -122.213507 250 17ft 2kts
01-Aug-20 16:24 37.708969 -122.215559 219 17ft 18kts
01-Aug-20 16:25 37.704137 -122.214463 131 17ft 25kts
01-Aug-20 16:26 37.702753 -122.213530 166 17ft 0kts
01-Aug-20 16:27 37.701724 -122.214427 280 17ft 14kts
01-Aug-20 16:28 37.721689 -122.246014 306 969ft 174kts
01-Aug-20 16:29 37.746585 -122.313280 289 2863ft 251kts
01-Aug-20 16:30 37.801751 -122.366118 339 5972ft 267kts
01-Aug-20 16:31 37.875216 -122.386114 359 9036ft 280kts
01-Aug-20 16:32 37.957072 -122.370851 22 10919ft 336kts
01-Aug-20 16:33 38.043184 -122.313866 27 13595ft 357kts
01-Aug-20 16:34 38.132656 -122.252565 27 16237ft 374kts
01-Aug-20 16:35 38.225230 -122.189035 27 18818ft 386kts
01-Aug-20 16:36 38.324955 -122.131421 13 20844ft 401kts
01-Aug-20 16:37 38.437189 -122.120013 355 22779ft 413kts
01-Aug-20 16:38 38.553518 -122.127860 354 24633ft 424kts
01-Aug-20 16:39 38.672305 -122.136019 354 26297ft 435kts
01-Aug-20 16:40 38.794077 -122.144418 354 27850ft 444kts
01-Aug-20 16:41 38.919014 -122.153067 354 29249ft 454kts
01-Aug-20 16:42 39.045779 -122.161874 353 30524ft 463kts
01-Aug-20 16:43 39.174052 -122.170791 354 32095ft 461kts
01-Aug-20 16:44 39.300998 -122.179660 353 33597ft 456kts
01-Aug-20 16:45 39.427041 -122.188496 353 34974ft 452kts
01-Aug-20 16:46 39.552037 -122.197318 353 35999ft 452kts
01-Aug-20 16:47 39.676637 -122.206108 353 35994ft 446kts
01-Aug-20 16:48 39.800235 -122.214879 353 35990ft 448kts
01-Aug-20 16:49 39.924670 -122.223740 353 35990ft 447kts
01-Aug-20 16:50 40.048616 -122.232104 357 35990ft 448kts
01-Aug-20 16:51 40.173169 -122.214862 5 35992ft 453kts
01-Aug-20 16:52 40.297314 -122.187663 6 36064ft 453kts
01-Aug-20 16:53 40.421457 -122.158426 7 36091ft 455kts
01-Aug-20 16:54 40.545278 -122.128625 7 36087ft 455kts
01-Aug-20 16:55 40.669874 -122.098378 7 36083ft 455kts
01-Aug-20 16:56 40.794502 -122.067973 6 36091ft 457kts
01-Aug-20 16:57 40.919770 -122.037269 6 36086ft 458kts
01-Aug-20 16:58 41.044639 -122.006545 6 36085ft 457kts
01-Aug-20 16:59 41.169201 -121.975778 6 36084ft 455kts
01-Aug-20 17:00 41.293427 -121.944978 6 36084ft 457kts
01-Aug-20 17:01 41.418360 -121.913895 6 36149ft 457kts
01-Aug-20 17:02 41.543013 -121.882733 6 36173ft 458kts
01-Aug-20 17:03 41.667802 -121.851414 6 36173ft 457kts
01-Aug-20 17:04 41.792670 -121.819970 6 36173ft 458kts
01-Aug-20 17:05 41.917632 -121.788374 6 36173ft 458kts
01-Aug-20 17:06 42.042752 -121.756614 5 36168ft 459kts
01-Aug-20 17:07 42.166618 -121.734755 352 36164ft 449kts
01-Aug-20 17:08 42.288718 -121.758337 345 36164ft 444kts
01-Aug-20 17:09 42.410421 -121.785959 344 36164ft 444kts
01-Aug-20 17:10 42.532292 -121.813839 345 36156ft 452kts
01-Aug-20 17:11 42.656211 -121.842143 345 36159ft 450kts
01-Aug-20 17:12 42.779383 -121.870437 345 36164ft 450kts
01-Aug-20 17:13 42.902845 -121.898932 345 36164ft 450kts
01-Aug-20 17:14 43.025275 -121.927302 345 36163ft 450kts
01-Aug-20 17:15 43.148603 -121.956003 344 36170ft 450kts
01-Aug-20 17:16 43.271403 -121.984693 344 36176ft 449kts
01-Aug-20 17:17 43.394642 -122.013749 344 36168ft 453kts
01-Aug-20 17:18 43.518163 -122.043137 344 36160ft 451kts
01-Aug-20 17:19 43.641688 -122.072436 344 36152ft 449kts
01-Aug-20 17:20 43.764625 -122.101682 344 36144ft 451kts
01-Aug-20 17:21 43.888039 -122.131122 344 36140ft 450kts
01-Aug-20 17:22 44.010912 -122.160560 344 36137ft 449kts
01-Aug-20 17:23 44.133031 -122.189956 344 36136ft 452kts
01-Aug-20 17:24 44.256336 -122.219737 344 36136ft 450kts
01-Aug-20 17:25 44.379369 -122.249589 344 36130ft 452kts
01-Aug-20 17:26 44.502837 -122.279661 343 36111ft 451kts
01-Aug-20 17:27 44.626028 -122.309814 343 36109ft 452kts
01-Aug-20 17:28 44.749806 -122.340234 343 36109ft 451kts
01-Aug-20 17:29 44.872762 -122.370571 343 36109ft 450kts
01-Aug-20 17:30 44.995521 -122.400994 343 36110ft 449kts
01-Aug-20 17:31 45.118910 -122.431721 343 36117ft 451kts
01-Aug-20 17:32 45.242331 -122.462560 343 36119ft 448kts
01-Aug-20 17:33 45.364560 -122.493863 342 36119ft 447kts
01-Aug-20 17:34 45.486712 -122.524968 342 35418ft 446kts
01-Aug-20 17:35 45.609618 -122.556241 343 33709ft 453kts
01-Aug-20 17:36 45.734126 -122.588019 343 31257ft 464kts
01-Aug-20 17:37 45.857957 -122.618717 344 29169ft 434kts
01-Aug-20 17:38 45.974134 -122.647515 344 27178ft 417kts
01-Aug-20 17:39 46.085435 -122.675187 345 25247ft 403kts
01-Aug-20 17:40 46.193082 -122.697292 348 23377ft 391kts
01-Aug-20 17:41 46.299155 -122.718089 349 21499ft 380kts
01-Aug-20 17:42 46.403671 -122.725072 355 19628ft 373kts
01-Aug-20 17:43 46.506008 -122.728912 356 17792ft 364kts
01-Aug-20 17:44 46.605957 -122.732518 356 15999ft 356kts
01-Aug-20 17:45 46.701747 -122.735983 357 14284ft 348kts
01-Aug-20 17:47 46.795454 -122.715904 26 12504ft 343kts
01-Aug-20 17:48 46.870086 -122.633237 43 10798ft 333kts
01-Aug-20 17:49 46.932992 -122.543851 46 9949ft 301kts
01-Aug-20 17:50 46.991634 -122.461309 31 8729ft 291kts
01-Aug-20 17:51 47.060593 -122.402588 29 7445ft 283kts
01-Aug-20 17:52 47.126630 -122.348335 21 6214ft 267kts
01-Aug-20 17:53 47.193550 -122.318520 7 5075ft 236kts
01-Aug-20 17:54 47.258203 -122.313618 359 3996ft 221kts
01-Aug-20 17:55 47.314569 -122.312841 358 2871ft 185kts
01-Aug-20 17:56 47.361818 -122.312377 357 1828ft 148kts
01-Aug-20 17:57 47.401918 -122.311410 357 1123ft 142kts
01-Aug-20 17:58 47.442756 -122.311228 358 448ft 143kts
01-Aug-20 17:59 47.459173 -122.309425 31 443ft 28kts
01-Aug-20 18:00 47.456847 -122.306198 182 443ft 16kts
01-Aug-20 18:00 47.453139 -122.306254 180 443ft 15kts
01-Aug-20 18:02 47.448028 -122.306292 180 443ft 16kts
01-Aug-20 18:03 47.443402 -122.306336 180 443ft 16kts
01-Aug-20 18:04 47.439916 -122.304900 94 443ft 11kts
01-Aug-20 18:04 47.440082 -122.303244 357 443ft 2kts
01-Aug-20 18:06 47.440589 -122.303386 346 443ft 0kts
01-Aug-20 18:07 47.440589 -122.303386 346 444ft 0kts
01-Aug-20 18:07 47.440589 -122.303386 346 444ft 0kts
01-Aug-20 18:08 47.440589 -122.303386 346 444ft 0kts
01-Aug-20 18:09 47.440589 -122.303386 346 444ft 0kts

Navigation Log

Ident Type
Flight plan parsing failed, navigation log unavailable